Time;durP1;ratioP1;P1;durP2;ratioP2;P2;SDS_P1;SDS_P2;PMS_P1;PMS_P2;Temp;Humidity;BMP_temperature;BMP_pressure;BME280_temperature;BME280_humidity;BME280_pressure;Samples;Min_cycle;Max_cycle;Signal;HPM_P1;HPM_P2
2023/01/07 00:01:14;;;;;;;7.10;5.30;;;12.20;99.90;;;;;;5004093;28;20037;-72
2023/01/07 00:03:40;;;;;;;8.63;5.90;;;12.20;99.90;;;;;;5002806;28;20034;-72
2023/01/07 00:06:08;;;;;;;13.60;6.05;;;12.20;99.90;;;;;;5007347;28;20060;-72
2023/01/07 00:08:36;;;;;;;6.55;5.65;;;12.20;99.90;;;;;;5000542;28;20470;-72
2023/01/07 00:11:03;;;;;;;7.65;5.35;;;12.20;99.90;;;;;;5006663;28;20036;-72
2023/01/07 00:13:29;;;;;;;7.10;5.35;;;12.00;99.90;;;;;;5009976;28;20075;-72
2023/01/07 00:16:07;;;;;;;7.65;5.78;;;12.00;99.90;;;;;;5007786;28;20481;-71
2023/01/07 00:18:34;;;;;;;8.73;5.57;;;12.00;99.90;;;;;;5005776;28;20037;-71
2023/01/07 00:21:02;;;;;;;7.93;6.28;;;12.00;99.90;;;;;;5012244;28;20026;-72
2023/01/07 00:23:28;;;;;;;8.38;5.88;;;12.10;99.90;;;;;;5007682;28;20034;-72
2023/01/07 00:26:01;;;;;;;7.25;5.38;;;12.00;99.90;;;;;;5006581;28;20037;-72
2023/01/07 00:28:28;;;;;;;7.65;5.30;;;12.00;99.90;;;;;;5003265;28;20034;-72
2023/01/07 00:31:01;;;;;;;11.00;7.00;;;11.90;99.90;;;;;;4996503;28;20022;-72
2023/01/07 00:33:27;;;;;;;7.03;5.20;;;11.90;99.90;;;;;;5003147;28;20040;-72
2023/01/07 00:36:05;;;;;;;8.27;5.32;;;12.00;99.90;;;;;;4989209;28;20169;-72
2023/01/07 00:38:30;;;;;;;9.18;5.85;;;12.00;99.90;;;;;;5003893;28;20490;-73
2023/01/07 00:40:56;;;;;;;8.48;5.30;;;12.00;99.90;;;;;;5003401;28;20308;-72
2023/01/07 00:43:22;;;;;;;6.32;5.45;;;12.00;99.90;;;;;;5007777;28;20486;-72
2023/01/07 00:45:47;;;;;;;7.93;5.75;;;12.00;99.90;;;;;;4987112;28;20075;-72
2023/01/07 00:48:13;;;;;;;5.80;5.30;;;12.10;99.90;;;;;;5005721;28;20070;-71
2023/01/07 00:50:39;;;;;;;6.30;5.20;;;12.00;99.90;;;;;;5013400;28;20022;-72
2023/01/07 00:53:05;;;;;;;6.88;4.85;;;12.10;99.90;;;;;;4999931;28;20457;-73
2023/01/07 00:55:31;;;;;;;6.22;4.32;;;12.10;99.90;;;;;;5003529;28;20030;-72
2023/01/07 00:57:57;;;;;;;9.40;5.60;;;12.10;99.90;;;;;;5009735;28;20033;-72
2023/01/07 01:00:24;;;;;;;5.82;4.90;;;12.10;99.90;;;;;;5005870;28;20026;-72
2023/01/07 01:02:50;;;;;;;6.88;4.43;;;12.10;99.90;;;;;;4985028;28;20109;-72
2023/01/07 01:05:16;;;;;;;8.57;4.65;;;12.20;99.90;;;;;;5005621;28;20513;-72
2023/01/07 01:07:42;;;;;;;5.43;4.55;;;12.20;99.90;;;;;;5005279;28;20042;-72
2023/01/07 01:10:11;;;;;;;6.97;4.80;;;12.20;99.90;;;;;;5007004;28;20426;-72
2023/01/07 01:12:37;;;;;;;7.13;4.38;;;12.20;99.90;;;;;;5001176;28;20033;-72
2023/01/07 01:15:05;;;;;;;12.45;4.32;;;12.20;99.90;;;;;;5002065;28;20022;-71
2023/01/07 01:17:31;;;;;;;6.38;4.35;;;12.20;99.90;;;;;;5007030;28;20084;-72
2023/01/07 01:19:57;;;;;;;7.75;4.25;;;12.30;99.90;;;;;;5003672;28;20030;-71
2023/01/07 01:22:23;;;;;;;4.95;3.60;;;12.30;99.90;;;;;;5002256;28;20108;-72
2023/01/07 01:24:50;;;;;;;8.10;4.50;;;12.30;99.90;;;;;;5002561;28;20032;-72
2023/01/07 01:27:16;;;;;;;4.63;3.95;;;12.30;99.90;;;;;;5004883;28;20034;-72
2023/01/07 01:29:42;;;;;;;4.43;3.80;;;12.20;99.90;;;;;;5008912;28;20497;-71
2023/01/07 01:32:07;;;;;;;7.68;5.20;;;12.20;99.90;;;;;;5001030;28;20034;-72
2023/01/07 01:34:33;;;;;;;7.47;4.03;;;12.20;99.90;;;;;;5000299;28;20022;-71
2023/01/07 01:36:59;;;;;;;4.97;4.47;;;12.20;99.90;;;;;;4990979;28;20037;-72
2023/01/07 01:39:24;;;;;;;8.07;5.35;;;12.30;99.90;;;;;;5011338;28;20033;-72
2023/01/07 01:41:50;;;;;;;9.43;4.70;;;12.30;99.90;;;;;;5007016;28;20026;-72
2023/01/07 01:44:33;;;;;;;7.57;4.95;;;12.30;99.90;;;;;;5000304;28;20474;-72
2023/01/07 01:46:59;;;;;;;6.18;4.80;;;12.30;99.90;;;;;;5001414;28;20115;-72
2023/01/07 01:49:29;;;;;;;9.30;4.60;;;12.30;99.90;;;;;;5004895;28;20030;-72
2023/01/07 01:52:02;;;;;;;5.95;4.57;;;12.30;99.90;;;;;;5000647;28;20042;-71
2023/01/07 01:54:28;;;;;;;8.57;4.82;;;12.30;99.90;;;;;;5001122;28;20551;-72
2023/01/07 01:56:57;;;;;;;6.25;4.57;;;12.30;99.90;;;;;;5001928;28;20084;-72
2023/01/07 01:59:25;;;;;;;4.85;4.00;;;12.20;99.90;;;;;;4999824;28;20478;-72
2023/01/07 02:01:52;;;;;;;6.75;4.20;;;12.20;99.90;;;;;;4998247;28;20037;-72
2023/01/07 02:04:20;;;;;;;8.13;4.25;;;12.20;99.90;;;;;;4998943;28;20501;-72
2023/01/07 02:07:12;;;;;;;6.93;4.55;;;12.20;99.90;;;;;;4997665;28;20430;-72
2023/01/07 02:09:37;;;;;;;6.07;4.05;;;12.20;99.90;;;;;;5005640;28;20501;-72
2023/01/07 02:12:42;;;;;;;5.05;4.10;;;12.20;99.90;;;;;;5004551;28;20025;-71
2023/01/07 02:15:24;;;;;;;8.98;4.38;;;12.10;99.90;;;;;;5002727;28;20474;-72
2023/01/07 02:17:58;;;;;;;7.22;4.60;;;12.20;99.90;;;;;;5000438;28;20028;-72
2023/01/07 02:20:42;;;;;;;6.55;4.68;;;12.20;99.90;;;;;;4998646;28;20104;-72
2023/01/07 02:23:18;;;;;;;8.38;3.50;;;12.20;99.90;;;;;;5003341;28;20432;-72
2023/01/07 02:25:49;;;;;;;6.57;4.45;;;12.20;99.90;;;;;;5003294;28;20018;-72
2023/01/07 02:28:31;;;;;;;5.90;3.58;;;12.20;99.90;;;;;;5009542;28;20041;-72
2023/01/07 02:31:03;;;;;;;4.65;4.07;;;12.10;99.90;;;;;;4999489;28;20066;-72
2023/01/07 02:33:38;;;;;;;5.13;3.90;;;12.10;99.90;;;;;;4987134;28;20026;-72
2023/01/07 02:36:11;;;;;;;6.13;4.35;;;12.10;99.90;;;;;;4998932;28;20117;-72
2023/01/07 02:38:46;;;;;;;4.47;4.07;;;12.10;99.90;;;;;;5001596;28;20041;-72
2023/01/07 02:41:34;;;;;;;8.70;3.72;;;12.00;99.90;;;;;;5000894;28;20485;-72
2023/01/07 02:44:02;;;;;;;8.43;4.60;;;12.10;99.90;;;;;;4968249;28;1098231;-72
2023/01/07 02:47:06;;;;;;;9.65;4.68;;;12.10;99.90;;;;;;5004275;28;20029;-71
2023/01/07 02:49:33;;;;;;;6.53;4.13;;;12.00;99.90;;;;;;4954473;29;20039;-71
2023/01/07 02:52:16;;;;;;;7.00;4.05;;;12.10;99.90;;;;;;4938635;29;20422;-71
2023/01/07 02:54:43;;;;;;;5.57;3.63;;;12.10;99.90;;;;;;4964485;28;20036;-71
2023/01/07 02:57:28;;;;;;;6.55;3.88;;;12.10;99.90;;;;;;5006574;28;20489;-71
2023/01/07 03:00:02;;;;;;;6.90;4.10;;;12.10;99.90;;;;;;4999598;28;20034;-71
2023/01/07 03:03:05;;;;;;;6.53;4.00;;;12.00;99.90;;;;;;5001431;28;20026;-72
2023/01/07 03:05:47;;;;;;;6.20;3.92;;;12.00;99.90;;;;;;5009647;28;20026;-71
2023/01/07 03:08:47;;;;;;;4.25;3.45;;;12.00;99.90;;;;;;4990700;28;20114;-71
2023/01/07 03:11:13;;;;;;;5.55;4.30;;;12.00;99.90;;;;;;5002635;28;20041;-71
2023/01/07 03:13:39;;;;;;;11.85;4.63;;;12.00;99.90;;;;;;5004335;28;20014;-71
2023/01/07 03:16:10;;;;;;;10.10;4.45;;;12.10;99.90;;;;;;5004065;28;20029;-71
2023/01/07 03:18:44;;;;;;;6.22;3.75;;;12.10;99.90;;;;;;5007264;28;20032;-71
2023/01/07 03:21:13;;;;;;;5.90;3.60;;;12.10;99.90;;;;;;5008833;28;20029;-72
2023/01/07 03:23:46;;;;;;;7.65;3.78;;;12.10;99.90;;;;;;5003298;28;20512;-71
2023/01/07 03:26:15;;;;;;;6.00;3.55;;;12.00;99.90;;;;;;5006064;28;20029;-72
2023/01/07 03:28:41;;;;;;;7.78;3.95;;;12.00;99.90;;;;;;5005301;28;20038;-72
2023/01/07 03:31:12;;;;;;;6.05;3.55;;;11.90;99.90;;;;;;5007494;28;20101;-72
2023/01/07 03:34:01;;;;;;;7.03;3.95;;;12.00;99.90;;;;;;5026089;28;20026;-72
2023/01/07 03:36:38;;;;;;;4.43;3.42;;;12.00;99.90;;;;;;5011895;28;20471;-72
2023/01/07 03:39:07;;;;;;;5.32;3.58;;;12.00;99.90;;;;;;5005615;28;20504;-72
2023/01/07 03:44:17;;;;;;;5.13;3.40;;;11.90;99.90;;;;;;5006371;28;20438;-72
2023/01/07 03:46:43;;;;;;;6.95;3.40;;;12.00;99.90;;;;;;5008769;28;20034;-72
2023/01/07 03:49:08;;;;;;;5.13;3.33;;;12.00;99.90;;;;;;5001424;28;20069;-72
2023/01/07 03:51:34;;;;;;;5.00;2.97;;;12.00;99.90;;;;;;5004886;28;20125;-72
2023/01/07 03:54:00;;;;;;;6.10;3.53;;;12.00;99.90;;;;;;5009240;28;20381;-72
2023/01/07 03:56:25;;;;;;;5.32;3.45;;;11.90;99.90;;;;;;4987161;28;20442;-71
2023/01/07 03:58:51;;;;;;;4.05;3.42;;;11.90;99.90;;;;;;5007406;28;20080;-71
2023/01/07 04:01:16;;;;;;;6.40;3.20;;;11.90;99.90;;;;;;5007273;28;20458;-72
2023/01/07 04:03:42;;;;;;;7.45;3.95;;;11.90;99.90;;;;;;5002268;28;20026;-72
2023/01/07 04:06:08;;;;;;;5.20;3.47;;;11.90;99.90;;;;;;5004989;28;20014;-72
2023/01/07 04:08:36;;;;;;;5.95;2.88;;;11.90;99.90;;;;;;4997417;28;20029;-72
2023/01/07 04:11:01;;;;;;;6.03;3.15;;;11.90;99.90;;;;;;5010942;28;20022;-71
2023/01/07 04:13:27;;;;;;;6.88;3.13;;;11.90;99.90;;;;;;4999916;28;20042;-71
2023/01/07 04:15:53;;;;;;;5.97;3.53;;;11.90;99.90;;;;;;5006969;28;20399;-72
2023/01/07 04:18:18;;;;;;;5.20;2.97;;;12.00;99.90;;;;;;4987551;28;20024;-72
2023/01/07 04:20:46;;;;;;;12.18;3.30;;;12.00;99.90;;;;;;5000841;28;20032;-71
2023/01/07 04:23:13;;;;;;;9.23;3.47;;;12.00;99.90;;;;;;5005476;28;20010;-72
2023/01/07 04:25:39;;;;;;;4.78;3.13;;;12.10;99.90;;;;;;5005745;28;20026;-72
2023/01/07 04:28:04;;;;;;;5.60;3.15;;;11.90;99.90;;;;;;4988927;28;20030;-72
2023/01/07 04:30:32;;;;;;;3.33;2.47;;;12.00;99.90;;;;;;4993232;28;20061;-71
2023/01/07 04:32:58;;;;;;;6.72;2.97;;;12.00;99.90;;;;;;5006393;28;20034;-72
2023/01/07 04:35:23;;;;;;;4.22;2.53;;;12.10;99.90;;;;;;5001833;28;20026;-72
2023/01/07 04:37:49;;;;;;;7.05;3.15;;;12.10;99.90;;;;;;5010065;28;20014;-72
2023/01/07 04:40:16;;;;;;;4.82;2.72;;;12.10;99.90;;;;;;5003991;28;20084;-72
2023/01/07 04:42:41;;;;;;;4.18;2.50;;;12.10;99.90;;;;;;5003603;28;20089;-72
2023/01/07 04:45:08;;;;;;;5.10;3.13;;;12.10;99.90;;;;;;5005109;28;20395;-72
2023/01/07 04:47:33;;;;;;;5.95;2.72;;;12.10;99.90;;;;;;5009559;28;20037;-72
2023/01/07 04:49:59;;;;;;;7.45;3.03;;;12.00;99.90;;;;;;4995046;28;20026;-72
2023/01/07 04:52:24;;;;;;;3.55;2.60;;;12.00;99.90;;;;;;4987440;28;20049;-72
2023/01/07 04:54:50;;;;;;;4.60;2.50;;;12.10;99.90;;;;;;4986507;28;20025;-72
2023/01/07 04:57:16;;;;;;;3.38;2.30;;;12.00;99.90;;;;;;5001953;28;20038;-71
2023/01/07 04:59:41;;;;;;;4.93;2.75;;;12.00;99.90;;;;;;5002135;28;20026;-71
2023/01/07 05:02:07;;;;;;;4.90;2.42;;;12.00;99.90;;;;;;5002242;28;20202;-72
2023/01/07 05:04:32;;;;;;;7.60;2.90;;;12.10;99.90;;;;;;4993430;28;20025;-72
2023/01/07 05:06:58;;;;;;;4.72;2.65;;;12.10;99.90;;;;;;5007641;28;20034;-72
2023/01/07 05:09:23;;;;;;;7.18;2.70;;;12.00;99.90;;;;;;4996919;28;20391;-72
2023/01/07 05:11:49;;;;;;;3.42;2.25;;;12.00;99.90;;;;;;5005874;28;20026;-71
2023/01/07 05:14:15;;;;;;;2.95;2.40;;;12.00;99.90;;;;;;5005055;28;20026;-72
2023/01/07 05:16:40;;;;;;;2.50;2.20;;;12.00;99.90;;;;;;5006200;28;20033;-72
2023/01/07 05:19:06;;;;;;;5.28;2.70;;;11.90;99.90;;;;;;4999084;28;20033;-72
2023/01/07 05:21:31;;;;;;;4.70;2.42;;;11.80;99.90;;;;;;5005297;28;20026;-72
2023/01/07 05:23:57;;;;;;;4.05;2.17;;;11.90;99.90;;;;;;5003399;28;20030;-72
2023/01/07 05:26:22;;;;;;;4.47;2.33;;;11.80;99.90;;;;;;5003498;28;20022;-72
2023/01/07 05:28:48;;;;;;;3.05;2.08;;;11.80;99.90;;;;;;5006267;28;20027;-72
2023/01/07 05:31:14;;;;;;;4.30;2.13;;;11.90;99.90;;;;;;4999293;28;20056;-71
2023/01/07 05:33:39;;;;;;;2.55;1.92;;;11.90;99.90;;;;;;5005082;28;20030;-72
2023/01/07 05:36:05;;;;;;;2.10;1.60;;;11.90;99.90;;;;;;4993375;28;20032;-72
2023/01/07 05:38:31;;;;;;;4.05;2.03;;;11.90;99.90;;;;;;5006239;28;20374;-73
2023/01/07 05:40:56;;;;;;;2.53;1.88;;;11.90;99.90;;;;;;5000217;28;20120;-71
2023/01/07 05:43:22;;;;;;;3.03;1.75;;;11.90;99.90;;;;;;4999252;28;20037;-72
2023/01/07 05:45:47;;;;;;;4.35;2.25;;;11.90;99.90;;;;;;5001575;28;20057;-72
2023/01/07 05:48:14;;;;;;;1.45;1.30;;;11.80;99.90;;;;;;4999680;28;20478;-74
2023/01/07 05:50:40;;;;;;;2.22;1.42;;;11.90;99.90;;;;;;5006159;28;20021;-73
2023/01/07 05:53:05;;;;;;;1.92;1.70;;;11.80;99.90;;;;;;4998539;28;20071;-74
2023/01/07 05:55:31;;;;;;;2.65;1.40;;;11.80;99.90;;;;;;5022125;28;20014;-73
2023/01/07 05:57:57;;;;;;;1.88;1.55;;;11.90;99.90;;;;;;5000506;28;20030;-74
2023/01/07 06:00:22;;;;;;;3.13;1.67;;;11.90;99.90;;;;;;5004412;28;20022;-73
2023/01/07 06:02:48;;;;;;;1.95;1.70;;;11.90;99.90;;;;;;4997432;28;20030;-73
2023/01/07 06:05:14;;;;;;;5.88;1.80;;;11.90;99.90;;;;;;5005118;28;20037;-74
2023/01/07 06:07:39;;;;;;;2.10;1.60;;;11.90;99.90;;;;;;5003341;28;20500;-73
2023/01/07 06:10:05;;;;;;;6.07;1.45;;;12.00;99.90;;;;;;4998492;28;20104;-73
2023/01/07 06:12:32;;;;;;;2.40;1.40;;;11.90;99.90;;;;;;4984965;28;20029;-73
2023/01/07 06:14:58;;;;;;;2.30;1.35;;;11.90;99.90;;;;;;5009322;28;20473;-72
2023/01/07 06:17:24;;;;;;;1.73;1.58;;;12.00;99.90;;;;;;5004771;28;20022;-73
2023/01/07 06:19:50;;;;;;;3.47;1.45;;;11.90;99.90;;;;;;5001566;28;20390;-74
2023/01/07 06:22:15;;;;;;;2.20;0.85;;;11.80;99.90;;;;;;5014541;28;20037;-71
2023/01/07 06:24:41;;;;;;;1.80;0.95;;;11.90;99.90;;;;;;5000296;28;20025;-71
2023/01/07 06:27:09;;;;;;;1.30;1.20;;;11.90;99.90;;;;;;5002604;28;20425;-71
2023/01/07 06:29:35;;;;;;;2.10;1.15;;;11.80;99.90;;;;;;4999642;28;20037;-70
2023/01/07 06:32:01;;;;;;;2.53;1.27;;;11.90;99.90;;;;;;5000944;28;20029;-71
2023/01/07 06:34:26;;;;;;;1.00;1.00;;;11.90;99.90;;;;;;5002028;28;20026;-70
2023/01/07 06:36:52;;;;;;;1.92;1.50;;;11.90;99.90;;;;;;4999556;28;20029;-71
2023/01/07 06:39:17;;;;;;;3.47;1.50;;;11.80;99.90;;;;;;5002643;28;20048;-71
2023/01/07 06:41:43;;;;;;;1.38;1.27;;;11.80;99.90;;;;;;5000294;28;20125;-70
2023/01/07 06:44:09;;;;;;;1.63;1.48;;;11.80;99.90;;;;;;4984575;28;20474;-71
2023/01/07 06:46:34;;;;;;;3.35;1.40;;;11.80;99.90;;;;;;5005400;28;20131;-71
2023/01/07 06:49:00;;;;;;;3.17;1.55;;;11.80;99.90;;;;;;5001143;28;20076;-71
2023/01/07 06:51:25;;;;;;;2.67;1.23;;;11.80;99.90;;;;;;5000525;28;20465;-71
2023/01/07 06:53:51;;;;;;;1.77;1.40;;;11.80;99.90;;;;;;5000699;28;20026;-71
2023/01/07 06:56:17;;;;;;;3.42;1.80;;;11.70;99.90;;;;;;5004908;28;20417;-71
2023/01/07 06:58:42;;;;;;;2.20;1.70;;;11.80;99.90;;;;;;4988350;28;20489;-71
2023/01/07 07:01:08;;;;;;;3.55;1.77;;;11.70;99.90;;;;;;5004400;28;20118;-71
2023/01/07 07:03:33;;;;;;;3.28;1.92;;;11.80;99.90;;;;;;4998606;28;20062;-70
2023/01/07 07:05:59;;;;;;;3.20;1.95;;;11.70;99.90;;;;;;5005116;28;20030;-71
2023/01/07 07:08:25;;;;;;;4.47;1.90;;;11.60;99.90;;;;;;5002051;28;20030;-71
2023/01/07 07:10:50;;;;;;;2.95;1.98;;;11.60;99.90;;;;;;5002583;28;20033;-71
2023/01/07 07:13:16;;;;;;;2.33;2.00;;;11.70;99.90;;;;;;5009890;28;20022;-71
2023/01/07 07:15:42;;;;;;;4.85;1.95;;;11.70;99.90;;;;;;5013816;28;20548;-71
2023/01/07 07:18:07;;;;;;;4.18;1.73;;;11.70;99.90;;;;;;5001539;28;20068;-71
2023/01/07 07:20:33;;;;;;;5.18;1.42;;;11.70;99.90;;;;;;5005013;28;20022;-71
2023/01/07 07:23:00;;;;;;;3.17;1.75;;;11.70;99.90;;;;;;5002116;28;20472;-72
2023/01/07 07:25:25;;;;;;;3.60;2.20;;;11.70;99.90;;;;;;5002029;28;20084;-71
2023/01/07 07:27:51;;;;;;;2.97;2.20;;;11.70;99.90;;;;;;5005936;28;20041;-71
2023/01/07 07:30:16;;;;;;;2.60;2.40;;;11.60;99.90;;;;;;5002064;28;20030;-71
2023/01/07 07:32:42;;;;;;;3.63;2.55;;;11.70;99.90;;;;;;5005886;28;20068;-71
2023/01/07 07:35:09;;;;;;;3.45;2.33;;;11.70;99.90;;;;;;5003042;28;20033;-71
2023/01/07 07:37:35;;;;;;;3.05;2.75;;;11.80;99.90;;;;;;5005116;28;20038;-71
2023/01/07 07:40:01;;;;;;;2.78;2.42;;;11.80;99.90;;;;;;4999383;28;20036;-71
2023/01/07 07:42:27;;;;;;;3.67;2.40;;;11.80;99.90;;;;;;5005806;28;20021;-72
2023/01/07 07:44:52;;;;;;;3.35;2.30;;;11.70;99.90;;;;;;5004329;28;20057;-71
2023/01/07 07:47:18;;;;;;;3.97;2.15;;;11.70;99.90;;;;;;4988048;28;20038;-71
2023/01/07 07:49:44;;;;;;;3.08;2.10;;;11.70;99.90;;;;;;5005962;28;20034;-71
2023/01/07 07:52:09;;;;;;;1.95;1.50;;;11.70;99.90;;;;;;5012448;28;20040;-71
2023/01/07 07:54:35;;;;;;;3.75;2.50;;;11.80;99.90;;;;;;5009965;28;20105;-71
2023/01/07 07:57:02;;;;;;;3.13;1.13;;;11.70;99.90;;;;;;5003232;28;20172;-71
2023/01/07 07:59:28;;;;;;;1.73;1.23;;;11.80;99.90;;;;;;5005571;28;20014;-70
2023/01/07 08:01:54;;;;;;;2.63;1.30;;;11.70;99.90;;;;;;5000161;28;20026;-70
2023/01/07 08:04:20;;;;;;;2.83;1.40;;;11.80;99.90;;;;;;5003276;28;20018;-71
2023/01/07 08:06:45;;;;;;;3.00;1.30;;;11.80;99.90;;;;;;5002650;28;20060;-71
2023/01/07 08:09:11;;;;;;;2.03;1.33;;;11.80;99.90;;;;;;5004675;28;20022;-70
2023/01/07 08:11:36;;;;;;;2.75;1.63;;;11.80;99.90;;;;;;5006959;28;20117;-71
2023/01/07 08:14:02;;;;;;;2.00;1.55;;;11.80;99.90;;;;;;4981796;28;20089;-70
2023/01/07 08:16:28;;;;;;;1.35;1.10;;;11.80;99.90;;;;;;5001554;28;20109;-70
2023/01/07 08:18:53;;;;;;;1.70;1.60;;;11.90;99.90;;;;;;5004470;28;20035;-71
2023/01/07 08:21:19;;;;;;;2.75;1.33;;;11.90;99.90;;;;;;5001355;28;20424;-70
2023/01/07 08:23:44;;;;;;;1.67;1.40;;;11.90;99.90;;;;;;5003608;28;20026;-70
2023/01/07 08:26:10;;;;;;;1.58;1.45;;;11.90;99.90;;;;;;5005911;28;20100;-70
2023/01/07 08:28:37;;;;;;;1.45;1.20;;;11.90;99.90;;;;;;5005283;28;20108;-70
2023/01/07 08:31:04;;;;;;;1.50;1.23;;;11.90;99.90;;;;;;4983808;28;20026;-70
2023/01/07 08:33:34;;;;;;;3.03;1.38;;;12.00;99.90;;;;;;5004434;28;20478;-70
2023/01/07 08:36:00;;;;;;;2.60;1.50;;;11.90;99.90;;;;;;4998706;28;20393;-70
2023/01/07 08:38:27;;;;;;;2.58;1.10;;;12.00;99.90;;;;;;5001921;28;20022;-71
2023/01/07 08:40:53;;;;;;;3.50;1.50;;;12.00;99.90;;;;;;5001898;28;20038;-71
2023/01/07 08:43:18;;;;;;;3.08;1.17;;;12.00;99.90;;;;;;4999672;28;20065;-70
2023/01/07 08:45:48;;;;;;;1.73;1.13;;;12.00;99.90;;;;;;5000180;28;20116;-70
2023/01/07 08:48:13;;;;;;;1.65;1.10;;;11.90;99.90;;;;;;4993122;28;20045;-70
2023/01/07 08:50:39;;;;;;;1.98;1.35;;;11.90;99.90;;;;;;5003035;28;20030;-70
2023/01/07 08:53:04;;;;;;;1.85;1.30;;;12.00;99.90;;;;;;4997920;28;20466;-71
2023/01/07 08:55:30;;;;;;;3.13;1.38;;;12.00;99.90;;;;;;4999546;28;20037;-70
2023/01/07 08:57:56;;;;;;;1.58;1.30;;;12.00;99.90;;;;;;5004252;28;20036;-71
2023/01/07 09:00:21;;;;;;;1.30;1.17;;;12.00;99.90;;;;;;5001494;28;20080;-70
2023/01/07 09:02:47;;;;;;;2.92;1.23;;;12.00;99.90;;;;;;5001991;28;20719;-70
2023/01/07 09:05:13;;;;;;;1.67;1.23;;;12.00;99.90;;;;;;5002939;28;20022;-70
2023/01/07 09:07:39;;;;;;;1.35;1.25;;;12.00;99.90;;;;;;5006930;28;20029;-70
2023/01/07 09:10:05;;;;;;;3.28;1.30;;;12.10;99.90;;;;;;4981711;28;20022;-70
2023/01/07 09:12:31;;;;;;;2.17;1.10;;;12.20;99.90;;;;;;5003905;28;20113;-71
2023/01/07 09:14:57;;;;;;;2.33;1.30;;;12.20;99.90;;;;;;5001428;28;20137;-71
2023/01/07 09:17:23;;;;;;;3.60;1.73;;;12.20;99.90;;;;;;5011915;28;20026;-71
2023/01/07 09:19:48;;;;;;;1.73;1.25;;;12.20;99.90;;;;;;5001768;28;20077;-71
2023/01/07 09:22:14;;;;;;;2.13;1.23;;;12.20;99.90;;;;;;5003947;28;20026;-70
2023/01/07 09:24:39;;;;;;;2.88;1.10;;;12.20;99.90;;;;;;5003377;28;20018;-70
2023/01/07 09:27:05;;;;;;;4.90;1.85;;;12.20;99.90;;;;;;5008306;28;20026;-70
2023/01/07 09:29:31;;;;;;;10.10;1.70;;;12.20;99.90;;;;;;5006350;28;20540;-70
2023/01/07 09:31:56;;;;;;;1.70;1.58;;;12.10;99.90;;;;;;5004740;28;20100;-70
2023/01/07 09:34:22;;;;;;;3.28;2.58;;;12.10;99.90;;;;;;5003561;28;20485;-71
2023/01/07 09:36:47;;;;;;;4.75;1.90;;;12.20;99.90;;;;;;4999350;28;20074;-71
2023/01/07 09:39:13;;;;;;;3.45;2.40;;;12.20;99.90;;;;;;5003431;28;20534;-71
2023/01/07 09:41:53;;;;;;;3.65;2.45;;;12.20;99.90;;;;;;5004970;28;20069;-70
2023/01/07 09:44:43;;;;;;;2.42;1.75;;;12.20;99.90;;;;;;5000230;28;20033;-70
2023/01/07 09:47:13;;;;;;;2.08;1.05;;;12.20;99.90;;;;;;4990480;28;20061;-70
2023/01/07 09:49:40;;;;;;;2.20;1.70;;;12.20;99.90;;;;;;5000095;28;20014;-70
2023/01/07 09:52:14;;;;;;;4.22;2.00;;;12.20;99.90;;;;;;5000111;28;20022;-70
2023/01/07 09:54:40;;;;;;;1.98;1.40;;;12.30;99.90;;;;;;5000775;28;20033;-70
2023/01/07 09:57:10;;;;;;;2.97;2.08;;;12.30;99.90;;;;;;5001155;28;20437;-70
2023/01/07 09:59:36;;;;;;;2.15;1.95;;;12.40;99.90;;;;;;4987623;28;20026;-70
2023/01/07 10:02:35;;;;;;;2.53;1.80;;;12.30;99.90;;;;;;5003793;28;20113;-70
2023/01/07 10:05:22;;;;;;;2.97;1.50;;;12.40;99.90;;;;;;5006959;28;20527;-70
2023/01/07 10:08:25;;;;;;;5.75;1.73;;;12.40;99.90;;;;;;5008960;28;20025;-70
2023/01/07 10:10:54;;;;;;;;;;;12.40;99.90;;;;;;4999568;28;20035;-70
2023/01/07 10:13:50;;;;;;;3.25;1.50;;;12.50;99.90;;;;;;5003320;28;19951;-70
2023/01/07 10:16:20;;;;;;;1.98;1.33;;;12.50;99.90;;;;;;5009960;28;20109;-70
2023/01/07 10:18:52;;;;;;;2.55;1.50;;;12.60;99.90;;;;;;5009709;28;20068;-71
2023/01/07 10:21:24;;;;;;;2.63;1.50;;;12.60;99.90;;;;;;5014879;28;20029;-71
2023/01/07 10:24:02;;;;;;;1.45;1.05;;;12.60;99.90;;;;;;5004168;28;20500;-70
2023/01/07 10:26:30;;;;;;;1.88;1.10;;;12.50;99.90;;;;;;5000455;28;20031;-70
2023/01/07 10:29:22;;;;;;;0.80;0.80;;;12.50;99.90;;;;;;5005267;28;20065;-70
2023/01/07 10:31:49;;;;;;;1.00;0.90;;;12.60;99.90;;;;;;4973882;28;20049;-70
2023/01/07 10:34:26;;;;;;;3.60;1.40;;;12.50;99.90;;;;;;5005402;28;20076;-70
2023/01/07 10:37:19;;;;;;;1.40;0.93;;;12.60;99.90;;;;;;5002604;28;20026;-70
2023/01/07 10:40:07;;;;;;;2.33;1.02;;;12.60;99.90;;;;;;5000625;28;20116;-71
2023/01/07 10:42:52;;;;;;;3.50;0.90;;;12.60;99.90;;;;;;5006650;28;20026;-69
2023/01/07 10:45:40;;;;;;;2.40;0.95;;;12.50;99.90;;;;;;4998884;28;20083;-71
2023/01/07 10:48:44;;;;;;;1.25;0.90;;;12.50;99.90;;;;;;5006498;28;20105;-70
2023/01/07 10:51:35;;;;;;;2.72;1.00;;;12.50;99.90;;;;;;4945722;29;20027;-71
2023/01/07 10:54:20;;;;;;;1.48;1.30;;;12.60;99.90;;;;;;5005801;28;20043;-71
2023/01/07 10:56:49;;;;;;;1.73;1.10;;;12.50;99.90;;;;;;5000393;28;20032;-70
2023/01/07 10:59:18;;;;;;;4.03;1.23;;;12.50;99.90;;;;;;5007785;28;20484;-70
2023/01/07 11:01:50;;;;;;;3.42;1.20;;;12.60;99.90;;;;;;5000551;28;20030;-71
2023/01/07 11:04:16;;;;;;;3.50;1.60;;;12.60;99.90;;;;;;5008907;28;20022;-72
2023/01/07 11:06:57;;;;;;;1.42;0.82;;;12.60;99.90;;;;;;5002982;28;20041;-70
2023/01/07 11:09:37;;;;;;;2.22;1.33;;;12.50;99.90;;;;;;5003949;28;20490;-69
2023/01/07 11:12:19;;;;;;;2.60;1.15;;;12.50;99.90;;;;;;5001709;28;20026;-70
2023/01/07 11:14:46;;;;;;;1.55;1.30;;;12.60;99.90;;;;;;5008612;28;20458;-71
2023/01/07 11:17:33;;;;;;;2.85;1.02;;;12.60;99.90;;;;;;5010175;28;20018;-70
2023/01/07 11:19:59;;;;;;;2.05;1.40;;;12.50;99.90;;;;;;5004868;28;20026;-70
2023/01/07 11:22:25;;;;;;;1.65;1.10;;;12.50;99.90;;;;;;5002165;28;20029;-70
2023/01/07 11:24:51;;;;;;;2.63;1.17;;;12.50;99.90;;;;;;4984575;28;20129;-70
2023/01/07 11:27:19;;;;;;;1.30;1.20;;;12.60;99.90;;;;;;5010046;28;20029;-70
2023/01/07 11:30:19;;;;;;;1.40;1.10;;;12.60;99.90;;;;;;5001752;28;20032;-71
2023/01/07 11:32:57;;;;;;;2.85;1.25;;;12.60;99.90;;;;;;5004688;28;20113;-71
2023/01/07 11:35:24;;;;;;;1.58;1.48;;;12.60;99.90;;;;;;5005826;28;20026;-71
2023/01/07 11:37:50;;;;;;;3.45;1.40;;;12.70;99.90;;;;;;5005153;28;20030;-70
2023/01/07 11:40:18;;;;;;;1.98;1.60;;;12.60;99.90;;;;;;5007034;28;20540;-71
2023/01/07 11:43:02;;;;;;;1.67;1.27;;;12.70;99.90;;;;;;5003039;28;20030;-71
2023/01/07 11:45:33;;;;;;;2.55;1.73;;;12.80;99.90;;;;;;5007149;28;20053;-70
2023/01/07 11:48:22;;;;;;;2.05;1.85;;;12.70;99.90;;;;;;5004184;28;20084;-70
2023/01/07 11:51:07;;;;;;;3.63;1.83;;;12.70;99.90;;;;;;5009470;28;20049;-70
2023/01/07 11:53:47;;;;;;;2.35;1.90;;;12.70;99.90;;;;;;5001685;28;20061;-71
2023/01/07 11:56:19;;;;;;;1.80;1.65;;;12.70;99.90;;;;;;5003396;28;20021;-71
2023/01/07 11:58:47;;;;;;;2.75;1.90;;;12.80;99.90;;;;;;5004471;28;20067;-71
2023/01/07 12:01:15;;;;;;;1.80;1.15;;;12.80;99.90;;;;;;5003845;28;20058;-71
2023/01/07 12:04:00;;;;;;;3.45;1.83;;;12.90;99.90;;;;;;5004398;28;20022;-71
2023/01/07 12:06:36;;;;;;;1.73;1.45;;;12.70;99.90;;;;;;5002669;28;20034;-72
2023/01/07 12:09:03;;;;;;;1.80;1.48;;;12.80;99.90;;;;;;5005407;28;20034;-70
2023/01/07 12:11:32;;;;;;;2.47;1.52;;;12.80;99.90;;;;;;5009541;28;20022;-71
2023/01/07 12:14:22;;;;;;;1.88;1.63;;;12.70;99.90;;;;;;5005752;28;20033;-70
2023/01/07 12:16:49;;;;;;;2.10;1.45;;;12.80;99.90;;;;;;5007845;28;20026;-70
2023/01/07 12:19:44;;;;;;;2.17;1.63;;;12.90;99.90;;;;;;5009309;28;20090;-70
2023/01/07 12:23:02;;;;;;;2.05;1.85;;;12.80;99.90;;;;;;4971065;28;20484;-70
2023/01/07 12:26:12;;;;;;;2.72;1.40;;;12.80;99.90;;;;;;4933412;29;20031;-71
2023/01/07 12:28:56;;;;;;;2.00;1.80;;;12.70;99.90;;;;;;5000550;28;20030;-71
2023/01/07 12:31:34;;;;;;;2.67;2.08;;;12.80;99.90;;;;;;5008952;28;20085;-71
2023/01/07 12:34:26;;;;;;;1.90;1.80;;;12.90;99.90;;;;;;5006906;28;20022;-70
2023/01/07 12:37:11;;;;;;;1.65;1.40;;;12.90;99.90;;;;;;5005924;28;20045;-70
2023/01/07 12:39:43;;;;;;;1.75;1.58;;;12.90;99.90;;;;;;5008372;28;20080;-71
2023/01/07 12:42:19;;;;;;;;;;;12.80;99.90;;;;;;5007323;28;20034;-71
2023/01/07 12:44:50;;;;;;;1.92;1.75;;;12.80;99.90;;;;;;5002838;28;19928;-70
2023/01/07 12:47:23;;;;;;;2.95;1.92;;;12.80;99.90;;;;;;5018708;28;20422;-70
2023/01/07 12:50:01;;;;;;;1.88;1.60;;;12.80;99.90;;;;;;4999644;28;20396;-70
2023/01/07 12:52:44;;;;;;;1.70;1.60;;;12.70;99.90;;;;;;5001806;28;20025;-71
2023/01/07 12:55:50;;;;;;;2.40;1.88;;;12.70;99.90;;;;;;4998451;28;20026;-70
2023/01/07 12:58:34;;;;;;;1.88;1.70;;;12.70;99.90;;;;;;4943843;29;20526;-70
2023/01/07 13:01:40;;;;;;;3.25;1.52;;;12.70;99.90;;;;;;4941603;29;20575;-70
2023/01/07 13:04:21;;;;;;;2.10;1.85;;;12.70;99.90;;;;;;4985987;28;20065;-71
2023/01/07 13:07:09;;;;;;;7.05;2.35;;;12.80;99.90;;;;;;5001790;28;20041;-71
2023/01/07 13:09:51;;;;;;;2.42;2.10;;;12.70;99.90;;;;;;5004936;28;20029;-70